createdAt,value
2023-08-28T00:01:17.325Z,8.57
2023-08-28T00:04:20.140Z,9.00
2023-08-28T00:07:23.013Z,9.13
2023-08-28T00:10:26.365Z,8.67
2023-08-28T00:13:29.048Z,9.00
2023-08-28T00:16:31.828Z,9.00
2023-08-28T00:19:35.072Z,8.60
2023-08-28T00:22:38.216Z,8.75
2023-08-28T00:25:41.049Z,9.50
2023-08-28T00:28:43.698Z,9.77
2023-08-28T00:31:46.432Z,9.75
2023-08-28T00:34:49.131Z,9.27
2023-08-28T00:37:51.805Z,10.20
2023-08-28T00:40:54.566Z,10.00
2023-08-28T00:43:57.422Z,10.27
2023-08-28T00:47:01.066Z,10.68
2023-08-28T00:50:05.423Z,9.90
2023-08-28T00:53:09.845Z,10.43
2023-08-28T00:56:12.711Z,10.20
2023-08-28T00:59:16.705Z,9.25
2023-08-28T01:02:19.526Z,9.68
2023-08-28T01:05:33.861Z,9.55
2023-08-28T01:08:58.394Z,8.82
2023-08-28T01:12:07.208Z,8.83
2023-08-28T01:15:22.020Z,9.63
2023-08-28T01:18:24.838Z,9.48
2023-08-28T01:21:28.381Z,9.02
2023-08-28T01:24:32.144Z,9.38
2023-08-28T01:27:35.696Z,8.87
2023-08-28T01:30:38.400Z,8.68
2023-08-28T01:33:41.414Z,8.88
2023-08-28T01:36:49.716Z,9.05
2023-08-28T01:39:56.688Z,9.50
2023-08-28T01:43:01.738Z,9.30
2023-08-28T01:46:05.624Z,9.00
2023-08-28T01:49:08.345Z,9.15
2023-08-28T01:52:11.079Z,9.13
2023-08-28T01:55:14.926Z,9.38
2023-08-28T01:58:17.595Z,9.27
2023-08-28T02:01:20.743Z,9.35
2023-08-28T02:04:23.526Z,8.98
2023-08-28T02:07:26.204Z,8.77
2023-08-28T02:10:28.901Z,9.00
2023-08-28T02:13:33.936Z,9.37
2023-08-28T02:16:39.665Z,9.13
2023-08-28T02:19:42.576Z,9.30
2023-08-28T02:22:45.294Z,9.35
2023-08-28T02:25:50.030Z,9.48
2023-08-28T02:28:52.869Z,9.07
2023-08-28T02:31:55.656Z,9.93
2023-08-28T02:34:59.905Z,10.02
2023-08-28T02:38:02.738Z,9.77
2023-08-28T02:41:06.623Z,10.50
2023-08-28T02:44:09.491Z,10.00
2023-08-28T02:47:12.323Z,10.57
2023-08-28T02:50:15.114Z,10.82
2023-08-28T02:53:18.311Z,10.65
2023-08-28T02:56:25.582Z,10.35
2023-08-28T02:59:31.285Z,10.47
2023-08-28T03:02:34.222Z,10.95
2023-08-28T03:05:36.981Z,10.85
2023-08-28T03:08:39.843Z,10.00
2023-08-28T03:11:42.808Z,10.48
2023-08-28T03:14:45.503Z,10.57
2023-08-28T03:17:48.387Z,11.13
2023-08-28T03:20:51.131Z,11.32
2023-08-28T03:23:53.988Z,11.13
2023-08-28T03:26:56.822Z,11.48
2023-08-28T03:29:59.646Z,11.60
2023-08-28T03:33:03.256Z,12.30
2023-08-28T03:36:07.494Z,12.32
2023-08-28T03:39:10.422Z,12.45
2023-08-28T03:42:13.106Z,11.50
2023-08-28T03:45:15.872Z,12.03
2023-08-28T03:48:18.674Z,11.75
2023-08-28T03:51:21.534Z,12.50
2023-08-28T03:54:24.208Z,12.13
2023-08-28T03:57:29.871Z,13.00
2023-08-28T04:00:35.917Z,13.03
2023-08-28T04:03:38.742Z,13.35
2023-08-28T04:06:43.153Z,12.77
2023-08-28T04:09:46.079Z,12.82
2023-08-28T04:12:48.846Z,13.10
2023-08-28T04:15:51.646Z,12.87
2023-08-28T04:18:54.390Z,12.90
2023-08-28T04:21:57.101Z,12.45
2023-08-28T04:25:02.051Z,12.43
2023-08-28T04:28:05.113Z,12.57
2023-08-28T04:31:13.039Z,12.73
2023-08-28T04:34:16.174Z,12.50
2023-08-28T04:37:18.859Z,12.93
2023-08-28T04:40:21.653Z,11.55
2023-08-28T04:43:24.402Z,12.45
2023-08-28T04:46:27.465Z,12.03
2023-08-28T04:49:32.167Z,11.95
2023-08-28T04:52:35.077Z,11.32
2023-08-28T04:55:40.863Z,11.27
2023-08-28T04:58:43.583Z,10.70
2023-08-28T05:01:46.253Z,10.20
2023-08-28T05:04:49.036Z,10.65
2023-08-28T05:07:51.841Z,10.52
2023-08-28T05:10:54.867Z,10.52
2023-08-28T05:13:59.176Z,10.55
2023-08-28T05:17:02.076Z,10.93
2023-08-28T05:20:05.063Z,10.52
2023-08-28T05:23:07.814Z,10.43
2023-08-28T05:26:10.579Z,11.00
2023-08-28T05:29:13.349Z,10.40
2023-08-28T05:32:16.172Z,10.23
2023-08-28T05:35:19.142Z,9.70
2023-08-28T05:38:21.928Z,9.60
2023-08-28T05:41:24.741Z,9.63
2023-08-28T05:44:27.825Z,9.27
2023-08-28T05:47:31.388Z,9.03
2023-08-28T05:50:34.320Z,10.27
2023-08-28T05:53:37.888Z,9.93
2023-08-28T05:56:40.813Z,9.88
2023-08-28T05:59:46.423Z,9.60
2023-08-28T06:02:50.531Z,9.93
2023-08-28T06:05:53.361Z,9.70
2023-08-28T06:08:56.094Z,9.45
2023-08-28T06:11:58.792Z,9.88
2023-08-28T06:15:02.068Z,9.48
2023-08-28T06:18:06.023Z,8.93
2023-08-28T06:21:08.955Z,9.48
2023-08-28T06:24:13.378Z,9.15
2023-08-28T06:27:22.601Z,8.93
2023-08-28T06:30:33.198Z,8.80
2023-08-28T06:33:36.205Z,8.67
2023-08-28T06:36:38.897Z,8.25
2023-08-28T06:39:41.660Z,9.07
2023-08-28T06:42:44.917Z,8.73
2023-08-28T06:45:48.370Z,8.90
2023-08-28T06:48:54.052Z,8.03
2023-08-28T06:51:56.849Z,9.02
2023-08-28T06:54:59.780Z,8.73
2023-08-28T06:58:03.960Z,8.38
2023-08-28T07:01:07.345Z,8.52
2023-08-28T07:04:11.577Z,8.23
2023-08-28T07:07:28.180Z,7.80
2023-08-28T07:10:32.961Z,7.78
2023-08-28T07:24:14.848Z,7.13
2023-08-28T07:27:49.271Z,7.53
2023-08-28T07:31:47.903Z,7.50
2023-08-28T07:34:51.173Z,7.43
2023-08-28T07:37:54.660Z,7.00
2023-08-28T07:41:07.079Z,6.37
2023-08-28T07:44:10.006Z,6.93
2023-08-28T07:47:19.666Z,7.15
2023-08-28T07:50:26.488Z,6.57
2023-08-28T07:53:39.466Z,6.97
2023-08-28T07:56:42.248Z,7.13
2023-08-28T07:59:45.110Z,8.07
2023-08-28T08:02:49.755Z,7.50
2023-08-28T08:05:53.688Z,7.07
2023-08-28T08:08:59.166Z,7.97
2023-08-28T08:12:03.657Z,7.67
2023-08-28T08:15:10.255Z,7.20
2023-08-28T08:18:13.024Z,7.38
2023-08-28T08:21:16.892Z,7.97
2023-08-28T08:24:19.642Z,7.40
2023-08-28T08:27:22.456Z,7.33
2023-08-28T08:30:32.952Z,7.22
2023-08-28T08:33:51.375Z,7.00
2023-08-28T08:36:54.141Z,6.90
2023-08-28T08:39:56.857Z,7.80
2023-08-28T08:47:35.309Z,7.43
2023-08-28T08:50:41.651Z,7.60
2023-08-28T08:54:13.903Z,7.20
2023-08-28T08:57:44.923Z,6.95
2023-08-28T09:00:49.484Z,7.60
2023-08-28T09:03:52.283Z,7.40
2023-08-28T09:07:15.066Z,7.88
2023-08-28T09:10:18.380Z,7.30
2023-08-28T09:13:23.226Z,8.00
2023-08-28T09:16:26.212Z,7.30
2023-08-28T09:20:14.720Z,7.93
2023-08-28T09:23:18.249Z,8.77
2023-08-28T09:26:23.463Z,8.48
2023-08-28T09:29:27.038Z,8.90
2023-08-28T09:32:30.556Z,8.87
2023-08-28T09:35:41.774Z,10.40
2023-08-28T09:39:09.701Z,8.88
2023-08-28T09:42:17.786Z,7.90
2023-08-28T09:46:25.641Z,8.18
2023-08-28T09:50:12.385Z,7.67
2023-08-28T09:53:16.738Z,7.68
2023-08-28T09:56:20.458Z,7.97
2023-08-28T09:59:23.425Z,7.60
2023-08-28T10:02:30.388Z,8.23
2023-08-28T10:05:36.496Z,7.60
2023-08-28T10:08:39.888Z,7.45
2023-08-28T10:11:44.740Z,7.65
2023-08-28T10:14:49.802Z,7.50
2023-08-28T10:17:53.125Z,8.60
2023-08-28T10:20:56.500Z,7.97
2023-08-28T10:23:59.612Z,8.15
2023-08-28T10:27:02.769Z,8.40
2023-08-28T10:30:06.151Z,7.60
2023-08-28T10:33:14.587Z,8.35
2023-08-28T10:39:43.062Z,7.88
2023-08-28T10:42:46.683Z,8.35
2023-08-28T10:45:52.407Z,8.60
2023-08-28T10:49:04.545Z,8.38
2023-08-28T10:52:07.859Z,8.23
2023-08-28T10:55:11.289Z,8.75
2023-08-28T10:58:14.146Z,8.25
2023-08-28T11:01:18.870Z,8.63
2023-08-28T11:04:23.421Z,8.20
2023-08-28T11:07:32.292Z,8.60
2023-08-28T11:10:37.091Z,7.80
2023-08-28T11:13:39.793Z,7.75
2023-08-28T11:16:43.070Z,7.72
2023-08-28T11:19:55.379Z,8.35
2023-08-28T11:23:03.165Z,7.80
2023-08-28T11:26:18.259Z,8.45
2023-08-28T11:29:28.331Z,8.88
2023-08-28T11:32:31.373Z,8.02
2023-08-28T11:35:36.270Z,8.15
2023-08-28T11:38:42.561Z,7.93
2023-08-28T11:41:45.325Z,8.38
2023-08-28T11:44:49.558Z,9.02
2023-08-28T11:47:52.410Z,8.43
2023-08-28T11:51:02.847Z,8.75
2023-08-28T11:54:05.661Z,8.80
2023-08-28T11:57:09.214Z,8.55
2023-08-28T12:00:16.257Z,8.20
2023-08-28T12:03:19.914Z,8.10
2023-08-28T12:06:22.843Z,8.20
2023-08-28T12:09:25.664Z,7.30
2023-08-28T12:12:30.924Z,7.88
2023-08-28T12:15:36.752Z,7.82
2023-08-28T12:18:49.604Z,7.28
2023-08-28T12:21:52.575Z,7.28
2023-08-28T12:24:58.982Z,7.00
2023-08-28T12:28:09.972Z,7.47
2023-08-28T12:31:12.902Z,7.53
2023-08-28T12:34:15.604Z,7.13
2023-08-28T12:37:19.207Z,7.35
2023-08-28T12:40:21.897Z,7.07
2023-08-28T12:43:24.699Z,6.35
2023-08-28T12:46:27.554Z,7.03
2023-08-28T12:49:30.378Z,6.43
2023-08-28T12:52:33.050Z,7.13
2023-08-28T12:55:36.401Z,7.10
2023-08-28T12:58:39.312Z,7.05
2023-08-28T13:01:42.849Z,7.10
2023-08-28T13:04:45.632Z,6.70
2023-08-28T13:07:49.022Z,6.88
2023-08-28T13:10:51.743Z,6.60
2023-08-28T13:13:54.481Z,6.97
2023-08-28T13:16:57.207Z,6.43
2023-08-28T13:19:59.989Z,7.45
2023-08-28T13:23:02.806Z,7.95
2023-08-28T13:26:05.906Z,8.23
2023-08-28T13:29:08.708Z,8.30
2023-08-28T13:32:11.429Z,9.52
2023-08-28T13:35:14.634Z,9.20
2023-08-28T13:38:17.714Z,10.18
2023-08-28T13:41:20.540Z,10.97
2023-08-28T13:44:26.013Z,11.73
2023-08-28T13:47:29.175Z,12.07
2023-08-28T13:50:31.998Z,12.13
2023-08-28T13:53:34.729Z,12.27
2023-08-28T13:56:37.538Z,11.53
2023-08-28T13:59:40.293Z,11.88
2023-08-28T14:02:43.793Z,12.48
2023-08-28T14:05:46.522Z,11.13
2023-08-28T14:08:49.460Z,11.18
2023-08-28T14:11:52.172Z,9.97
2023-08-28T14:14:54.889Z,11.82
2023-08-28T14:17:57.701Z,10.88
2023-08-28T14:21:00.904Z,11.18
2023-08-28T14:24:03.947Z,10.88
2023-08-28T14:27:06.645Z,10.30
2023-08-28T14:30:10.211Z,10.30
2023-08-28T14:33:13.127Z,10.13
2023-08-28T14:36:15.982Z,8.82
2023-08-28T14:39:19.053Z,9.60
2023-08-28T14:42:21.982Z,9.50
2023-08-28T14:45:24.656Z,9.50
2023-08-28T14:48:27.499Z,8.63
2023-08-28T14:51:30.888Z,9.35
2023-08-28T14:54:33.658Z,9.15
2023-08-28T14:57:36.722Z,9.00
2023-08-28T15:00:39.637Z,8.90
2023-08-28T15:03:44.458Z,8.70
2023-08-28T15:06:47.381Z,8.40
2023-08-28T15:09:50.216Z,8.32
2023-08-28T15:12:54.119Z,7.80
2023-08-28T15:15:56.822Z,8.00
2023-08-28T15:18:59.563Z,8.27
2023-08-28T15:22:02.253Z,8.50
2023-08-28T15:25:05.258Z,8.27
2023-08-28T15:28:09.690Z,7.50
2023-08-28T15:31:12.463Z,7.28
2023-08-28T15:34:15.207Z,7.82
2023-08-28T15:37:17.899Z,8.23
2023-08-28T15:40:22.350Z,7.93
2023-08-28T15:43:25.073Z,7.90
2023-08-28T15:46:27.890Z,8.13
2023-08-28T15:49:30.757Z,7.70
2023-08-28T15:52:33.693Z,7.68
2023-08-28T15:55:36.780Z,7.45
2023-08-28T15:58:39.476Z,7.53
2023-08-28T16:01:43.240Z,7.53
2023-08-28T16:04:46.395Z,7.93
2023-08-28T16:07:49.109Z,7.68
2023-08-28T16:10:51.842Z,8.05
2023-08-28T16:13:54.555Z,8.40
2023-08-28T16:16:57.404Z,7.88
2023-08-28T16:20:00.285Z,8.43
2023-08-28T16:23:03.417Z,8.07
2023-08-28T16:26:06.353Z,8.20
2023-08-28T16:29:09.453Z,7.83
2023-08-28T16:32:13.782Z,8.50
2023-08-28T16:35:16.467Z,8.27
2023-08-28T16:38:20.099Z,8.10
2023-08-28T16:41:23.696Z,8.52
2023-08-28T16:44:26.448Z,8.43
2023-08-28T16:47:29.273Z,8.88
2023-08-28T16:50:32.060Z,8.38
2023-08-28T16:53:34.954Z,8.80
2023-08-28T16:56:39.801Z,8.10
2023-08-28T16:59:42.777Z,8.30
2023-08-28T17:02:45.570Z,8.05
2023-08-28T17:06:01.118Z,8.38
2023-08-28T17:09:06.801Z,8.55
2023-08-28T17:12:09.614Z,9.50
2023-08-28T17:15:12.380Z,9.13
2023-08-28T17:18:15.198Z,8.80
2023-08-28T17:21:18.348Z,9.63
2023-08-28T17:24:21.164Z,8.82
2023-08-28T17:27:23.950Z,8.27
2023-08-28T17:30:26.759Z,7.67
2023-08-28T17:33:29.490Z,7.65
2023-08-28T17:36:32.770Z,7.10
2023-08-28T17:39:36.596Z,6.68
2023-08-28T17:42:40.538Z,6.40
2023-08-28T17:45:46.747Z,6.47
2023-08-28T17:48:49.653Z,6.13
2023-08-28T17:51:52.432Z,6.40
2023-08-28T17:54:58.894Z,5.93
2023-08-28T17:58:01.690Z,6.20
2023-08-28T18:01:04.488Z,6.77
2023-08-28T18:04:07.846Z,6.07
2023-08-28T18:07:10.890Z,5.80
2023-08-28T18:10:13.772Z,5.78
2023-08-28T18:13:16.471Z,5.93
2023-08-28T18:16:21.720Z,5.83
2023-08-28T18:19:24.494Z,6.10
2023-08-28T18:22:27.178Z,5.90
2023-08-28T18:25:29.915Z,5.85
2023-08-28T18:28:34.264Z,5.68
2023-08-28T18:31:37.296Z,6.53
2023-08-28T18:34:40.140Z,5.70
2023-08-28T18:37:42.943Z,6.13
2023-08-28T18:40:52.732Z,5.93
2023-08-28T18:43:55.558Z,5.65
2023-08-28T18:46:59.053Z,5.13
2023-08-28T18:50:01.980Z,5.40
2023-08-28T18:53:05.168Z,5.47
2023-08-28T18:56:08.314Z,5.75
2023-08-28T18:59:11.067Z,6.03
2023-08-28T19:02:14.177Z,5.60
2023-08-28T19:05:17.166Z,5.93
2023-08-28T19:08:20.499Z,6.07
2023-08-28T19:11:23.294Z,6.80
2023-08-28T19:14:25.966Z,6.18
2023-08-28T19:17:29.027Z,6.10
2023-08-28T19:20:45.060Z,6.60
2023-08-28T19:23:53.074Z,5.97
2023-08-28T19:26:56.024Z,5.63
2023-08-28T19:29:59.170Z,5.53
2023-08-28T19:33:02.267Z,5.67
2023-08-28T19:36:05.268Z,5.60
2023-08-28T19:39:09.833Z,5.45
2023-08-28T19:42:12.514Z,5.50
2023-08-28T19:45:15.734Z,5.68
2023-08-28T19:48:18.625Z,5.70
2023-08-28T19:51:23.734Z,6.15
2023-08-28T19:54:26.470Z,5.95
2023-08-28T19:57:29.209Z,5.88
2023-08-28T20:00:32.069Z,6.00
2023-08-28T20:03:35.048Z,6.20
2023-08-28T20:06:37.875Z,6.05
2023-08-28T20:09:40.901Z,7.00
2023-08-28T20:12:43.638Z,7.22
2023-08-28T20:15:50.374Z,6.60
2023-08-28T20:18:53.090Z,6.17
2023-08-28T20:21:56.665Z,6.30
2023-08-28T20:24:59.436Z,6.20
2023-08-28T20:28:02.343Z,7.03
2023-08-28T20:31:05.387Z,6.70
2023-08-28T20:34:08.210Z,6.33
2023-08-28T20:37:11.004Z,6.63
2023-08-28T20:40:13.855Z,7.50
2023-08-28T20:43:17.830Z,7.47
2023-08-28T20:46:21.516Z,6.80
2023-08-28T20:49:24.208Z,7.97
2023-08-28T20:52:26.909Z,8.05
2023-08-28T20:55:29.624Z,8.77
2023-08-28T20:58:33.580Z,8.27
2023-08-28T21:01:37.020Z,8.52
2023-08-28T21:04:40.958Z,8.10
2023-08-28T21:07:44.490Z,7.82
2023-08-28T21:10:47.288Z,7.68
2023-08-28T21:13:49.960Z,7.55
2023-08-28T21:16:53.527Z,8.48
2023-08-28T21:19:56.241Z,7.70
2023-08-28T21:22:59.015Z,7.32
2023-08-28T21:26:04.905Z,7.75
2023-08-28T21:29:07.624Z,7.70
2023-08-28T21:32:10.396Z,7.65
2023-08-28T21:35:13.115Z,6.50
2023-08-28T21:38:15.780Z,6.93
2023-08-28T21:41:18.573Z,7.13
2023-08-28T21:44:21.307Z,6.43
2023-08-28T21:47:24.033Z,6.43
2023-08-28T21:50:45.537Z,6.27
2023-08-28T21:54:07.078Z,6.40
2023-08-28T21:57:28.638Z,6.30
2023-08-28T22:00:50.566Z,6.47
2023-08-28T22:04:11.558Z,6.60
2023-08-28T22:07:32.735Z,5.73
2023-08-28T22:10:58.894Z,5.88
2023-08-28T22:14:21.592Z,5.57
2023-08-28T22:17:24.337Z,6.60
2023-08-28T22:20:27.403Z,6.63
2023-08-28T22:23:30.547Z,5.50
2023-08-28T22:26:33.327Z,5.95
2023-08-28T22:29:36.007Z,6.38
2023-08-28T22:32:38.678Z,6.28
2023-08-28T22:35:41.473Z,6.10
2023-08-28T22:38:44.156Z,6.33
2023-08-28T22:41:47.628Z,6.50
2023-08-28T22:44:51.023Z,6.53
2023-08-28T22:47:53.892Z,6.93
2023-08-28T22:50:56.572Z,6.65
2023-08-28T22:53:59.634Z,6.30
2023-08-28T22:57:04.310Z,6.05
2023-08-28T23:00:08.818Z,6.80
2023-08-28T23:03:12.049Z,6.97
2023-08-28T23:06:14.887Z,6.90
2023-08-28T23:09:17.762Z,6.47
2023-08-28T23:12:20.472Z,6.25
2023-08-28T23:15:26.012Z,6.38
2023-08-28T23:18:29.003Z,6.47
2023-08-28T23:21:32.868Z,6.15
2023-08-28T23:24:35.692Z,6.23
2023-08-28T23:27:38.553Z,6.50
2023-08-28T23:30:41.505Z,6.82
2023-08-28T23:33:44.396Z,6.40
2023-08-28T23:36:49.764Z,6.07
2023-08-28T23:39:52.626Z,6.80
2023-08-28T23:42:55.413Z,6.90
2023-08-28T23:45:58.761Z,7.03
2023-08-28T23:49:01.691Z,6.50
2023-08-28T23:52:04.711Z,7.03
2023-08-28T23:55:07.994Z,7.67
2023-08-28T23:58:11.159Z,7.15
